createdAt,value
2022-11-14T00:00:01.949Z,90.35
2022-11-14T00:01:01.950Z,108.71
2022-11-14T00:02:01.958Z,96
2022-11-14T00:03:02.086Z,111.53
2022-11-14T00:04:02.077Z,96
2022-11-14T00:05:01.957Z,90.35
2022-11-14T00:06:01.960Z,90.35
2022-11-14T00:07:01.981Z,90.35
2022-11-14T00:08:01.946Z,135.53
2022-11-14T00:09:01.967Z,104.47
2022-11-14T00:10:01.990Z,100.24
2022-11-14T00:11:01.957Z,105.88
2022-11-14T00:12:01.951Z,88.94
2022-11-14T00:13:01.962Z,86.12
2022-11-14T00:14:01.955Z,63.53
2022-11-14T00:15:01.956Z,96
2022-11-14T00:16:01.957Z,96
2022-11-14T00:17:01.959Z,96
2022-11-14T00:18:01.956Z,96
2022-11-14T00:19:01.962Z,96
2022-11-14T00:20:02.093Z,96
2022-11-14T00:21:01.964Z,96
2022-11-14T00:22:01.968Z,151.06
2022-11-14T00:23:01.961Z,169.41
2022-11-14T00:24:01.966Z,136.94
2022-11-14T00:25:01.961Z,120
2022-11-14T00:26:01.965Z,118.59
2022-11-14T00:27:01.963Z,101.65
2022-11-14T00:28:01.969Z,98.82
2022-11-14T00:29:01.970Z,117.18
2022-11-14T00:30:01.970Z,152.47
2022-11-14T00:31:01.965Z,223.06
2022-11-14T00:32:01.960Z,211.76
2022-11-14T00:33:01.964Z,214.59
2022-11-14T00:34:01.971Z,180.71
2022-11-14T00:35:01.965Z,88.94
2022-11-14T00:36:02.092Z,103.06
2022-11-14T00:37:01.966Z,115.76
2022-11-14T00:38:01.974Z,101.65
2022-11-14T00:39:01.965Z,81.88
2022-11-14T00:40:01.962Z,72
2022-11-14T00:41:01.963Z,84.71
2022-11-14T00:42:01.972Z,117.18
2022-11-14T00:43:01.981Z,121.41
2022-11-14T00:44:01.979Z,98.82
2022-11-14T00:45:01.983Z,81.88
2022-11-14T00:46:01.975Z,114.35
2022-11-14T00:47:01.990Z,96
2022-11-14T00:48:01.995Z,306.35
2022-11-14T00:49:01.976Z,302.12
2022-11-14T00:50:01.983Z,302.12
2022-11-14T00:51:01.993Z,302.12
2022-11-14T00:52:02.099Z,302.12
2022-11-14T00:53:01.992Z,302.12
2022-11-14T00:54:01.984Z,302.12
2022-11-14T00:55:02.075Z,302.12
2022-11-14T00:56:01.982Z,302.12
2022-11-14T00:57:01.996Z,0
2022-11-14T00:58:01.985Z,321.88
2022-11-14T00:59:01.990Z,303.53
2022-11-14T01:00:01.992Z,300.71
2022-11-14T01:01:02.053Z,235.76
2022-11-14T01:02:01.990Z,283.76
2022-11-14T01:03:01.988Z,316.24
2022-11-14T01:04:01.991Z,316.24
2022-11-14T01:05:01.987Z,316.24
2022-11-14T01:06:01.994Z,28.24
2022-11-14T01:07:01.989Z,77.65
2022-11-14T01:08:02.108Z,114.35
2022-11-14T01:09:02.013Z,60.71
2022-11-14T01:10:01.993Z,282.35
2022-11-14T01:11:01.990Z,264
2022-11-14T01:12:01.995Z,110.12
2022-11-14T01:13:01.994Z,88.94
2022-11-14T01:14:02.004Z,9.88
2022-11-14T01:15:01.994Z,285.18
2022-11-14T01:16:01.995Z,266.82
2022-11-14T01:17:02.000Z,125.65
2022-11-14T01:18:01.997Z,124.24
2022-11-14T01:19:02.006Z,80.47
2022-11-14T01:20:02.002Z,80.47
2022-11-14T01:21:01.995Z,234.35
2022-11-14T01:22:06.057Z,220.24
2022-11-14T01:23:01.997Z,304.94
2022-11-14T01:24:02.122Z,324.71
2022-11-14T01:25:01.995Z,156.71
2022-11-14T01:26:01.997Z,224.47
2022-11-14T01:27:02.009Z,206.12
2022-11-14T01:28:02.003Z,48
2022-11-14T01:29:01.999Z,74.82
2022-11-14T01:30:02.000Z,67.76
2022-11-14T01:31:02.002Z,67.76
2022-11-14T01:32:02.003Z,107.29
2022-11-14T01:33:02.001Z,84.71
2022-11-14T01:34:02.012Z,46.59
2022-11-14T01:35:02.017Z,74.82
2022-11-14T01:36:02.006Z,155.29
2022-11-14T01:37:02.002Z,138.35
2022-11-14T01:38:02.008Z,146.82
2022-11-14T01:39:02.007Z,134.12
2022-11-14T01:40:02.131Z,111.53
2022-11-14T01:41:02.009Z,105.88
2022-11-14T01:42:02.003Z,73.41
2022-11-14T01:43:02.024Z,72
2022-11-14T01:44:02.022Z,72
2022-11-14T01:45:02.011Z,72
2022-11-14T01:46:02.015Z,72
2022-11-14T01:47:02.019Z,72
2022-11-14T01:48:02.018Z,72
2022-11-14T01:49:02.017Z,72
2022-11-14T01:50:02.031Z,72
2022-11-14T01:51:02.016Z,72
2022-11-14T01:52:02.014Z,72
2022-11-14T01:53:02.024Z,72
2022-11-14T01:54:02.011Z,72
2022-11-14T01:55:02.021Z,72
2022-11-14T01:56:02.146Z,72
2022-11-14T01:57:02.023Z,72
2022-11-14T01:58:02.025Z,72
2022-11-14T01:59:02.025Z,72
2022-11-14T02:00:02.029Z,72
2022-11-14T02:01:02.057Z,72
2022-11-14T02:02:02.029Z,72
2022-11-14T02:03:02.027Z,72
2022-11-14T02:04:04.332Z,72
2022-11-14T02:05:02.037Z,72
2022-11-14T02:06:02.027Z,72
2022-11-14T02:07:02.108Z,72
2022-11-14T02:08:02.028Z,72
2022-11-14T02:09:02.039Z,72
2022-11-14T02:10:02.033Z,72
2022-11-14T02:11:02.044Z,72
2022-11-14T02:12:02.055Z,72
2022-11-14T02:13:02.040Z,72
2022-11-14T02:14:02.033Z,72
2022-11-14T02:15:02.038Z,72
2022-11-14T02:16:02.032Z,72
2022-11-14T02:17:27.685Z,72
2022-11-14T02:18:02.034Z,72
2022-11-14T02:19:02.037Z,72
2022-11-14T02:20:04.973Z,278.12
2022-11-14T02:21:02.034Z,258.35
2022-11-14T02:22:02.036Z,314.82
2022-11-14T02:23:02.046Z,314.82
2022-11-14T02:24:02.040Z,314.82
2022-11-14T02:25:02.037Z,314.82
2022-11-14T02:26:02.042Z,314.82
2022-11-14T02:27:02.044Z,314.82
2022-11-14T02:28:02.162Z,314.82
2022-11-14T02:29:02.038Z,314.82
2022-11-14T02:30:02.042Z,314.82
2022-11-14T02:31:02.045Z,314.82
2022-11-14T02:32:03.089Z,314.82
2022-11-14T02:33:10.820Z,314.82
2022-11-14T02:34:02.042Z,314.82
2022-11-14T02:35:02.042Z,314.82
2022-11-14T02:36:02.044Z,314.82
2022-11-14T02:37:02.049Z,314.82
2022-11-14T02:38:02.040Z,155.29
2022-11-14T02:39:02.044Z,124.24
2022-11-14T02:40:02.044Z,124.24
2022-11-14T02:41:02.048Z,96
2022-11-14T02:42:02.044Z,91.76
2022-11-14T02:43:02.041Z,87.53
2022-11-14T02:44:02.170Z,84.71
2022-11-14T02:45:02.049Z,76.24
2022-11-14T02:46:05.535Z,74.82
2022-11-14T02:47:02.058Z,84.71
2022-11-14T02:48:02.050Z,84.71
2022-11-14T02:49:02.049Z,84.71
2022-11-14T02:50:02.051Z,84.71
2022-11-14T02:51:02.052Z,22.59
2022-11-14T02:52:02.061Z,62.12
2022-11-14T02:53:02.061Z,46.59
2022-11-14T02:54:02.053Z,46.59
2022-11-14T02:55:02.062Z,46.59
2022-11-14T02:56:02.059Z,46.59
2022-11-14T02:57:02.052Z,46.59
2022-11-14T02:58:02.050Z,55.06
2022-11-14T02:59:02.060Z,43.76
2022-11-14T03:00:02.174Z,43.76
2022-11-14T03:01:26.548Z,43.76
2022-11-14T03:02:02.170Z,43.76
2022-11-14T03:03:02.057Z,43.76
2022-11-14T03:04:02.050Z,55.06
2022-11-14T03:05:02.057Z,59.29
2022-11-14T03:06:02.060Z,70.59
2022-11-14T03:07:02.095Z,60.71
2022-11-14T03:08:02.063Z,79.06
2022-11-14T03:09:02.063Z,76.24
2022-11-14T03:10:02.060Z,64.94
2022-11-14T03:11:02.058Z,35.29
2022-11-14T03:12:02.066Z,63.53
2022-11-14T03:13:02.058Z,43.76
2022-11-14T03:14:02.063Z,43.76
2022-11-14T03:15:02.053Z,134.12
2022-11-14T03:16:02.180Z,201.88
2022-11-14T03:17:02.061Z,173.65
2022-11-14T03:18:02.056Z,196.24
2022-11-14T03:19:02.064Z,131.29
2022-11-14T03:20:02.061Z,73.41
2022-11-14T03:21:02.060Z,73.41
2022-11-14T03:22:02.063Z,73.41
2022-11-14T03:23:02.057Z,73.41
2022-11-14T03:24:02.062Z,73.41
2022-11-14T03:25:02.063Z,73.41
2022-11-14T03:26:02.066Z,73.41
2022-11-14T03:27:02.059Z,187.76
2022-11-14T03:28:02.063Z,103.06
2022-11-14T03:29:02.065Z,88.94
2022-11-14T03:30:02.059Z,79.06
2022-11-14T03:31:02.073Z,59.29
2022-11-14T03:32:02.179Z,56.47
2022-11-14T03:33:02.063Z,56.47
2022-11-14T03:34:02.068Z,56.47
2022-11-14T03:35:02.077Z,56.47
2022-11-14T03:36:02.064Z,56.47
2022-11-14T03:37:02.066Z,56.47
2022-11-14T03:38:02.062Z,136.94
2022-11-14T03:39:02.077Z,141.18
2022-11-14T03:40:02.080Z,120
2022-11-14T03:41:02.109Z,129.88
2022-11-14T03:42:02.079Z,190.59
2022-11-14T03:43:02.076Z,160.94
2022-11-14T03:44:02.080Z,182.12
2022-11-14T03:45:02.067Z,90.35
2022-11-14T03:46:02.082Z,69.18
2022-11-14T03:47:02.076Z,70.59
2022-11-14T03:48:02.194Z,53.65
2022-11-14T03:49:02.074Z,42.35
2022-11-14T03:50:02.078Z,36.71
2022-11-14T03:51:02.087Z,145.41
2022-11-14T03:52:02.080Z,262.59
2022-11-14T03:53:02.088Z,120
2022-11-14T03:54:02.087Z,96
2022-11-14T03:55:02.090Z,96
2022-11-14T03:56:02.084Z,76.24
2022-11-14T03:57:02.085Z,24
2022-11-14T03:58:02.090Z,94.59
2022-11-14T03:59:02.083Z,74.82
2022-11-14T04:00:02.092Z,72
2022-11-14T04:01:02.103Z,170.82
2022-11-14T04:02:02.084Z,138.35
2022-11-14T04:03:02.099Z,135.53
2022-11-14T04:04:02.209Z,132.71
2022-11-14T04:05:02.096Z,125.65
2022-11-14T04:06:02.096Z,180.71
2022-11-14T04:07:02.143Z,101.65
2022-11-14T04:08:02.098Z,96
2022-11-14T04:09:02.088Z,74.82
2022-11-14T04:10:02.091Z,74.82
2022-11-14T04:11:02.093Z,74.82
2022-11-14T04:12:02.103Z,74.82
2022-11-14T04:13:02.095Z,74.82
2022-11-14T04:14:02.097Z,74.82
2022-11-14T04:15:02.114Z,74.82
2022-11-14T04:16:02.103Z,74.82
2022-11-14T04:17:02.092Z,74.82
2022-11-14T04:18:02.105Z,74.82
2022-11-14T04:19:02.099Z,74.82
2022-11-14T04:20:02.208Z,74.82
2022-11-14T04:21:02.101Z,74.82
2022-11-14T04:22:02.107Z,74.82
2022-11-14T04:23:02.109Z,74.82
2022-11-14T04:24:03.893Z,74.82
2022-11-14T04:25:02.106Z,74.82
2022-11-14T04:26:02.105Z,74.82
2022-11-14T04:27:02.129Z,74.82
2022-11-14T04:28:02.112Z,74.82
2022-11-14T04:29:02.108Z,74.82
2022-11-14T04:30:02.116Z,74.82
2022-11-14T04:31:02.119Z,15.53
2022-11-14T04:32:02.110Z,21.18
2022-11-14T04:33:02.110Z,4.24
2022-11-14T04:34:02.114Z,351.53
2022-11-14T04:35:02.112Z,7.06
2022-11-14T04:36:02.230Z,64.94
2022-11-14T04:37:02.118Z,57.88
2022-11-14T04:38:02.123Z,57.88
2022-11-14T04:39:02.118Z,57.88
2022-11-14T04:40:02.116Z,57.88
2022-11-14T04:41:02.124Z,57.88
2022-11-14T04:42:02.124Z,84.71
2022-11-14T04:43:02.118Z,84.71
2022-11-14T04:44:02.117Z,84.71
2022-11-14T04:45:02.147Z,84.71
2022-11-14T04:46:02.115Z,84.71
2022-11-14T04:47:02.121Z,84.71
2022-11-14T04:48:02.118Z,84.71
2022-11-14T04:49:02.123Z,84.71
2022-11-14T04:50:02.118Z,84.71
2022-11-14T04:51:02.122Z,84.71
2022-11-14T04:52:02.242Z,84.71
2022-11-14T04:53:02.135Z,84.71
2022-11-14T04:54:02.126Z,84.71
2022-11-14T04:55:02.115Z,84.71
2022-11-14T04:56:02.123Z,84.71
2022-11-14T04:57:02.126Z,84.71
2022-11-14T04:58:02.129Z,84.71
2022-11-14T04:59:02.129Z,84.71
2022-11-14T05:00:02.129Z,84.71
2022-11-14T05:01:02.171Z,84.71
2022-11-14T05:02:02.133Z,84.71
2022-11-14T05:03:02.134Z,84.71
2022-11-14T05:04:02.140Z,84.71
2022-11-14T05:05:02.134Z,84.71
2022-11-14T05:06:02.134Z,84.71
2022-11-14T05:07:02.206Z,84.71
2022-11-14T05:08:02.154Z,84.71
2022-11-14T05:09:02.138Z,84.71
2022-11-14T05:10:02.143Z,84.71
2022-11-14T05:11:02.138Z,84.71
2022-11-14T05:12:02.151Z,84.71
2022-11-14T05:13:02.148Z,84.71
2022-11-14T05:14:02.147Z,84.71
2022-11-14T05:15:02.139Z,84.71
2022-11-14T05:16:02.144Z,84.71
2022-11-14T05:17:02.145Z,84.71
2022-11-14T05:18:02.141Z,84.71
2022-11-14T05:19:02.151Z,84.71
2022-11-14T05:20:02.157Z,84.71
2022-11-14T05:21:02.156Z,84.71
2022-11-14T05:22:02.155Z,84.71
2022-11-14T05:23:02.153Z,84.71
2022-11-14T05:24:02.173Z,84.71
2022-11-14T05:25:02.157Z,84.71
2022-11-14T05:26:02.155Z,84.71
2022-11-14T05:27:02.154Z,84.71
2022-11-14T05:28:02.155Z,84.71
2022-11-14T05:29:02.146Z,84.71
2022-11-14T05:30:02.164Z,84.71
2022-11-14T05:31:02.152Z,84.71
2022-11-14T05:32:02.156Z,84.71
2022-11-14T05:33:02.149Z,84.71
2022-11-14T05:34:02.159Z,84.71
2022-11-14T05:35:02.154Z,84.71
2022-11-14T05:36:02.159Z,84.71
2022-11-14T05:37:02.162Z,115.76
2022-11-14T05:38:02.160Z,50.82
2022-11-14T05:39:02.168Z,50.82
2022-11-14T05:40:02.183Z,50.82
2022-11-14T05:41:02.163Z,50.82
2022-11-14T05:42:02.161Z,141.18
2022-11-14T05:43:02.164Z,101.65
2022-11-14T05:44:02.166Z,112.94
2022-11-14T05:45:02.169Z,122.82
2022-11-14T05:46:02.160Z,94.59
2022-11-14T05:47:02.159Z,97.41
2022-11-14T05:48:02.171Z,117.18
2022-11-14T05:49:02.169Z,121.41
2022-11-14T05:50:02.180Z,98.82
2022-11-14T05:51:02.166Z,70.59
2022-11-14T05:52:02.167Z,86.12
2022-11-14T05:53:02.175Z,33.88
2022-11-14T05:54:02.168Z,33.88
2022-11-14T05:55:02.165Z,33.88
2022-11-14T05:56:02.193Z,33.88
2022-11-14T05:57:02.174Z,33.88
2022-11-14T05:58:02.171Z,76.24
2022-11-14T05:59:02.172Z,96
2022-11-14T06:00:02.173Z,120
2022-11-14T06:01:02.174Z,108.71
2022-11-14T06:02:02.206Z,108.71
2022-11-14T06:03:02.177Z,108.71
2022-11-14T06:04:02.180Z,108.71
2022-11-14T06:05:02.172Z,108.71
2022-11-14T06:06:02.175Z,108.71
2022-11-14T06:07:02.202Z,108.71
2022-11-14T06:08:02.186Z,108.71
2022-11-14T06:09:02.177Z,108.71
2022-11-14T06:10:02.174Z,108.71
2022-11-14T06:11:02.178Z,108.71
2022-11-14T06:12:02.210Z,108.71
2022-11-14T06:13:02.184Z,108.71
2022-11-14T06:14:03.875Z,108.71
2022-11-14T06:15:02.187Z,108.71
2022-11-14T06:16:02.218Z,108.71
2022-11-14T06:17:02.185Z,108.71
2022-11-14T06:18:02.193Z,108.71
2022-11-14T06:19:02.196Z,108.71
2022-11-14T06:20:02.235Z,112.94
2022-11-14T06:21:02.188Z,115.76
2022-11-14T06:22:02.191Z,86.12
2022-11-14T06:23:02.203Z,86.12
2022-11-14T06:24:02.195Z,86.12
2022-11-14T06:25:02.194Z,86.12
2022-11-14T06:26:02.200Z,86.12
2022-11-14T06:27:02.200Z,86.12
2022-11-14T06:28:02.221Z,86.12
2022-11-14T06:29:02.202Z,86.12
2022-11-14T06:30:02.206Z,86.12
2022-11-14T06:31:02.198Z,86.12
2022-11-14T06:32:02.227Z,86.12
2022-11-14T06:33:02.201Z,86.12
2022-11-14T06:34:02.203Z,86.12
2022-11-14T06:35:02.211Z,86.12
2022-11-14T06:36:02.205Z,86.12
2022-11-14T06:37:02.203Z,86.12
2022-11-14T06:38:02.201Z,86.12
2022-11-14T06:39:02.205Z,86.12
2022-11-14T06:40:02.195Z,86.12
2022-11-14T06:41:02.205Z,79.06
2022-11-14T06:42:02.215Z,110.12
2022-11-14T06:43:02.205Z,110.12
2022-11-14T06:44:02.286Z,96
2022-11-14T06:45:02.209Z,93.18
2022-11-14T06:46:02.214Z,76.24
2022-11-14T06:47:02.210Z,76.24
2022-11-14T06:48:02.210Z,76.24
2022-11-14T06:49:02.211Z,76.24
2022-11-14T06:50:02.215Z,76.24
2022-11-14T06:51:02.223Z,76.24
2022-11-14T06:52:02.218Z,76.24
2022-11-14T06:53:02.220Z,76.24
2022-11-14T06:54:02.221Z,76.24
2022-11-14T06:55:02.216Z,76.24
2022-11-14T06:56:02.234Z,76.24
2022-11-14T06:57:02.216Z,76.24
2022-11-14T06:58:02.219Z,76.24
2022-11-14T06:59:02.217Z,76.24
2022-11-14T07:00:02.240Z,76.24
2022-11-14T07:01:02.227Z,76.24
2022-11-14T07:02:02.225Z,76.24
2022-11-14T07:03:02.260Z,76.24
2022-11-14T07:04:02.227Z,76.24
2022-11-14T07:05:02.225Z,76.24
2022-11-14T07:06:02.229Z,160.94
2022-11-14T07:07:02.280Z,190.59
2022-11-14T07:08:02.222Z,190.59
2022-11-14T07:09:02.218Z,190.59
2022-11-14T07:10:02.222Z,142.59
2022-11-14T07:11:02.225Z,114.35
2022-11-14T07:12:02.227Z,84.71
2022-11-14T07:13:02.220Z,93.18
2022-11-14T07:14:02.233Z,93.18
2022-11-14T07:15:02.215Z,93.18
2022-11-14T07:16:02.253Z,93.18
2022-11-14T07:17:02.226Z,93.18
2022-11-14T07:18:02.242Z,93.18
2022-11-14T07:19:02.241Z,93.18
2022-11-14T07:20:02.222Z,94.59
2022-11-14T07:21:02.232Z,94.59
2022-11-14T07:22:02.242Z,94.59
2022-11-14T07:23:02.240Z,94.59
2022-11-14T07:24:02.237Z,94.59
2022-11-14T07:25:02.245Z,94.59
2022-11-14T07:26:02.236Z,94.59
2022-11-14T07:27:02.239Z,94.59
2022-11-14T07:28:02.242Z,94.59
2022-11-14T07:29:03.005Z,94.59
2022-11-14T07:30:02.264Z,94.59
2022-11-14T07:31:02.248Z,94.59
2022-11-14T07:32:02.291Z,94.59
2022-11-14T07:33:02.241Z,94.59
2022-11-14T07:34:02.255Z,94.59
2022-11-14T07:35:02.774Z,94.59
2022-11-14T07:36:02.241Z,94.59
2022-11-14T07:37:02.256Z,94.59
2022-11-14T07:38:02.236Z,94.59
2022-11-14T07:39:02.246Z,94.59
2022-11-14T07:40:02.246Z,94.59
2022-11-14T07:41:02.241Z,94.59
2022-11-14T07:42:02.243Z,94.59
2022-11-14T07:43:02.242Z,94.59
2022-11-14T07:44:02.249Z,94.59
2022-11-14T07:45:02.245Z,94.59
2022-11-14T07:46:02.245Z,94.59
2022-11-14T07:47:02.268Z,94.59
2022-11-14T07:48:02.284Z,94.59
2022-11-14T07:49:02.255Z,94.59
2022-11-14T07:50:02.247Z,94.59
2022-11-14T07:51:02.254Z,94.59
2022-11-14T07:52:02.252Z,94.59
2022-11-14T07:53:02.256Z,94.59
2022-11-14T07:54:02.255Z,94.59
2022-11-14T07:55:02.247Z,94.59
2022-11-14T07:56:02.257Z,94.59
2022-11-14T07:57:02.256Z,94.59
2022-11-14T07:58:02.242Z,94.59
2022-11-14T07:59:02.255Z,94.59
2022-11-14T08:00:02.250Z,94.59
2022-11-14T08:01:02.393Z,94.59
2022-11-14T08:02:02.254Z,94.59
2022-11-14T08:03:02.257Z,94.59
2022-11-14T08:04:02.270Z,94.59
2022-11-14T08:05:02.248Z,94.59
2022-11-14T08:06:02.257Z,94.59
2022-11-14T08:07:02.307Z,94.59
2022-11-14T08:08:02.264Z,94.59
2022-11-14T08:09:02.274Z,94.59
2022-11-14T08:10:02.254Z,94.59
2022-11-14T08:11:02.252Z,94.59
2022-11-14T08:12:02.250Z,94.59
2022-11-14T08:13:30.102Z,259.76
2022-11-14T08:14:02.256Z,290.82
2022-11-14T08:15:02.251Z,276.71
2022-11-14T08:16:02.257Z,276.71
2022-11-14T08:17:02.258Z,276.71
2022-11-14T08:18:02.253Z,276.71
2022-11-14T08:19:02.269Z,124.24
2022-11-14T08:20:02.291Z,131.29
2022-11-14T08:21:02.270Z,131.29
2022-11-14T08:22:02.265Z,131.29
2022-11-14T08:23:02.267Z,131.29
2022-11-14T08:24:02.265Z,131.29
2022-11-14T08:25:02.262Z,131.29
2022-11-14T08:26:02.269Z,131.29
2022-11-14T08:27:02.268Z,131.29
2022-11-14T08:28:02.272Z,125.65
2022-11-14T08:29:02.275Z,77.65
2022-11-14T08:30:02.275Z,77.65
2022-11-14T08:31:02.291Z,77.65
2022-11-14T08:32:02.290Z,77.65
2022-11-14T08:33:02.266Z,77.65
2022-11-14T08:34:02.277Z,77.65
2022-11-14T08:35:02.278Z,77.65
2022-11-14T08:36:02.299Z,112.94
2022-11-14T08:37:02.274Z,114.35
2022-11-14T08:38:02.281Z,114.35
2022-11-14T08:39:02.468Z,114.35
2022-11-14T08:40:02.273Z,114.35
2022-11-14T08:41:02.311Z,114.35
2022-11-14T08:42:02.282Z,114.35
2022-11-14T08:43:02.287Z,114.35
2022-11-14T08:44:02.277Z,114.35
2022-11-14T08:45:02.279Z,114.35
2022-11-14T08:46:02.482Z,114.35
2022-11-14T08:47:02.292Z,114.35
2022-11-14T08:48:02.293Z,114.35
2022-11-14T08:49:02.283Z,114.35
2022-11-14T08:50:02.297Z,114.35
2022-11-14T08:51:02.284Z,114.35
2022-11-14T08:52:02.341Z,114.35
2022-11-14T08:53:02.286Z,114.35
2022-11-14T08:54:02.293Z,114.35
2022-11-14T08:55:02.285Z,114.35
2022-11-14T08:56:02.293Z,114.35
2022-11-14T08:57:02.293Z,114.35
2022-11-14T08:58:02.312Z,114.35
2022-11-14T08:59:02.294Z,114.35
2022-11-14T09:00:02.295Z,114.35
2022-11-14T09:01:02.303Z,114.35
2022-11-14T09:02:02.308Z,114.35
2022-11-14T09:03:02.319Z,114.35
2022-11-14T09:04:02.539Z,114.35
2022-11-14T09:05:02.305Z,114.35
2022-11-14T09:06:02.316Z,114.35
2022-11-14T09:07:02.367Z,80.47
2022-11-14T09:08:02.347Z,111.53
2022-11-14T09:09:02.306Z,111.53
2022-11-14T09:10:02.303Z,111.53
2022-11-14T09:11:05.077Z,111.53
2022-11-14T09:12:02.305Z,111.53
2022-11-14T09:13:02.302Z,111.53
2022-11-14T09:14:02.307Z,180.71
2022-11-14T09:15:02.307Z,180.71
2022-11-14T09:16:02.311Z,180.71
2022-11-14T09:17:05.843Z,180.71
2022-11-14T09:18:02.309Z,220.24
2022-11-14T09:19:02.312Z,208.94
2022-11-14T09:20:02.321Z,208.94
2022-11-14T09:21:02.308Z,208.94
2022-11-14T09:22:02.312Z,208.94
2022-11-14T09:23:02.318Z,208.94
2022-11-14T09:24:02.339Z,210.35
2022-11-14T09:25:02.311Z,173.65
2022-11-14T09:26:02.319Z,173.65
2022-11-14T09:27:02.316Z,173.65
2022-11-14T09:28:02.323Z,173.65
2022-11-14T09:29:02.323Z,173.65
2022-11-14T09:30:02.314Z,173.65
2022-11-14T09:31:02.321Z,173.65
2022-11-14T09:32:02.321Z,173.65
2022-11-14T09:33:05.729Z,173.65
2022-11-14T09:34:02.324Z,173.65
2022-11-14T09:35:02.312Z,262.59
2022-11-14T09:36:02.318Z,256.94
2022-11-14T09:37:02.324Z,292.24
2022-11-14T09:38:02.320Z,296.47
2022-11-14T09:39:02.324Z,300.71
2022-11-14T09:40:02.349Z,304.94
2022-11-14T09:41:02.323Z,289.41
2022-11-14T09:42:02.321Z,289.41
2022-11-14T09:43:02.317Z,289.41
2022-11-14T09:44:02.324Z,241.41
2022-11-14T09:45:02.356Z,256.94
2022-11-14T09:46:02.326Z,242.82
2022-11-14T09:47:02.330Z,242.82
2022-11-14T09:48:02.323Z,242.82
2022-11-14T09:49:02.324Z,242.82
2022-11-14T09:50:02.340Z,242.82
2022-11-14T09:51:02.327Z,242.82
2022-11-14T09:52:02.332Z,242.82
2022-11-14T09:53:02.322Z,242.82
2022-11-14T09:54:02.336Z,242.82
2022-11-14T09:55:02.334Z,242.82
2022-11-14T09:56:02.351Z,242.82
2022-11-14T09:57:02.332Z,242.82
2022-11-14T09:58:02.333Z,242.82
2022-11-14T09:59:02.331Z,242.82
2022-11-14T10:00:02.351Z,242.82
2022-11-14T10:01:06.484Z,242.82
2022-11-14T10:02:02.549Z,242.82
2022-11-14T10:03:02.348Z,242.82
2022-11-14T10:04:04.860Z,242.82
2022-11-14T10:05:02.387Z,242.82
2022-11-14T10:06:02.346Z,242.82
2022-11-14T10:07:02.403Z,256.94
2022-11-14T10:08:02.355Z,214.59
2022-11-14T10:09:02.353Z,214.59
2022-11-14T10:10:02.350Z,214.59
2022-11-14T10:11:02.347Z,214.59
2022-11-14T10:12:02.373Z,214.59
2022-11-14T10:13:02.348Z,206.12
2022-11-14T10:14:02.362Z,203.29
2022-11-14T10:15:02.362Z,149.65
2022-11-14T10:16:02.363Z,149.65
2022-11-14T10:17:05.296Z,149.65
2022-11-14T10:18:02.362Z,149.65
2022-11-14T10:19:02.367Z,149.65
2022-11-14T10:20:02.357Z,46.59
2022-11-14T10:21:02.382Z,350.12
2022-11-14T10:22:02.371Z,2.82
2022-11-14T10:23:02.360Z,69.18
2022-11-14T10:24:02.369Z,16.94
2022-11-14T10:25:02.360Z,169.41
2022-11-14T10:26:02.358Z,169.41
2022-11-14T10:27:02.369Z,213.18
2022-11-14T10:28:05.131Z,200.47
2022-11-14T10:29:02.358Z,50.82
2022-11-14T10:30:02.371Z,160.94
2022-11-14T10:31:02.371Z,59.29
2022-11-14T10:32:02.392Z,33.88
2022-11-14T10:33:02.372Z,146.82
2022-11-14T10:34:02.372Z,210.35
2022-11-14T10:35:02.369Z,168
2022-11-14T10:36:02.377Z,190.59
2022-11-14T10:37:02.374Z,183.53
2022-11-14T10:38:02.378Z,197.65
2022-11-14T10:39:02.389Z,155.29
2022-11-14T10:40:02.370Z,159.53
2022-11-14T10:41:02.371Z,213.18
2022-11-14T10:42:07.283Z,148.24
2022-11-14T10:43:02.372Z,105.88
2022-11-14T10:44:02.410Z,84.71
2022-11-14T10:45:02.371Z,131.29
2022-11-14T10:46:02.402Z,201.88
2022-11-14T10:47:02.379Z,179.29
2022-11-14T10:48:02.387Z,187.76
2022-11-14T10:49:02.383Z,196.24
2022-11-14T10:50:02.382Z,201.88
2022-11-14T10:51:02.399Z,203.29
2022-11-14T10:52:02.381Z,206.12
2022-11-14T10:53:02.388Z,192
2022-11-14T10:54:02.394Z,148.24
2022-11-14T10:55:02.390Z,151.06
2022-11-14T10:56:04.919Z,160.94
2022-11-14T10:57:02.390Z,213.18
2022-11-14T10:58:02.389Z,241.41
2022-11-14T10:59:02.391Z,172.24
2022-11-14T11:00:02.404Z,203.29
2022-11-14T11:01:02.462Z,186.35
2022-11-14T11:02:02.393Z,187.76
2022-11-14T11:03:02.392Z,221.65
2022-11-14T11:04:02.500Z,262.59
2022-11-14T11:05:02.388Z,189.18
2022-11-14T11:06:02.395Z,175.06
2022-11-14T11:07:02.402Z,179.29
2022-11-14T11:08:10.226Z,201.88
2022-11-14T11:09:02.542Z,158.12
2022-11-14T11:10:02.393Z,193.41
2022-11-14T11:11:02.394Z,177.88
2022-11-14T11:12:02.402Z,172.24
2022-11-14T11:13:02.501Z,206.12
2022-11-14T11:14:02.394Z,177.88
2022-11-14T11:15:02.401Z,187.76
2022-11-14T11:16:02.429Z,162.35
2022-11-14T11:17:02.403Z,163.76
2022-11-14T11:18:02.399Z,169.41
2022-11-14T11:19:02.403Z,175.06
2022-11-14T11:20:06.501Z,192
2022-11-14T11:21:02.483Z,207.53
2022-11-14T11:22:02.398Z,186.35
2022-11-14T11:23:03.394Z,211.76
2022-11-14T11:24:02.425Z,214.59
2022-11-14T11:25:02.405Z,206.12
2022-11-14T11:26:02.401Z,201.88
2022-11-14T11:27:02.406Z,189.18
2022-11-14T11:28:02.413Z,231.53
2022-11-14T11:29:02.409Z,251.29
2022-11-14T11:30:02.401Z,166.59
2022-11-14T11:31:02.405Z,172.24
2022-11-14T11:32:02.426Z,197.65
2022-11-14T11:33:02.411Z,186.35
2022-11-14T11:34:02.410Z,170.82
2022-11-14T11:35:02.426Z,182.12
2022-11-14T11:36:02.420Z,213.18
2022-11-14T11:37:02.426Z,180.71
2022-11-14T11:38:02.410Z,193.41
2022-11-14T11:39:02.419Z,217.41
2022-11-14T11:40:02.412Z,131.29
2022-11-14T11:41:02.408Z,139.76
2022-11-14T11:42:09.077Z,192
2022-11-14T11:43:37.716Z,214.59
2022-11-14T11:44:02.745Z,210.35
2022-11-14T11:45:02.417Z,203.29
2022-11-14T11:46:02.416Z,176.47
2022-11-14T11:47:02.416Z,160.94
2022-11-14T11:48:02.493Z,201.88
2022-11-14T11:49:02.427Z,186.35
2022-11-14T11:50:02.435Z,179.29
2022-11-14T11:51:02.422Z,200.47
2022-11-14T11:52:02.416Z,217.41
2022-11-14T11:53:02.441Z,211.76
2022-11-14T11:54:02.418Z,173.65
2022-11-14T11:55:02.412Z,190.59
2022-11-14T11:56:02.421Z,211.76
2022-11-14T11:57:02.421Z,199.06
2022-11-14T11:58:02.414Z,155.29
2022-11-14T11:59:02.420Z,172.24
2022-11-14T12:00:02.414Z,156.71
2022-11-14T12:01:02.423Z,128.47
2022-11-14T12:02:02.477Z,80.47
2022-11-14T12:03:02.519Z,135.53
2022-11-14T12:04:02.523Z,139.76
2022-11-14T12:05:02.429Z,138.35
2022-11-14T12:06:02.426Z,81.88
2022-11-14T12:07:02.466Z,101.65
2022-11-14T12:08:02.433Z,83.29
2022-11-14T12:09:02.423Z,228.71
2022-11-14T12:10:10.770Z,244.24
2022-11-14T12:11:02.436Z,240
2022-11-14T12:12:02.432Z,245.65
2022-11-14T12:13:02.421Z,204.71
2022-11-14T12:14:02.426Z,251.29
2022-11-14T12:15:02.433Z,228.71
2022-11-14T12:16:02.428Z,211.76
2022-11-14T12:17:02.427Z,240
2022-11-14T12:18:02.424Z,201.88
2022-11-14T12:19:02.428Z,201.88
2022-11-14T12:20:02.451Z,201.88
2022-11-14T12:21:02.430Z,189.18
2022-11-14T12:22:02.437Z,115.76
2022-11-14T12:23:02.434Z,115.76
2022-11-14T12:24:02.434Z,104.47
2022-11-14T12:25:02.436Z,170.82
2022-11-14T12:26:02.435Z,187.76
2022-11-14T12:27:02.437Z,129.88
2022-11-14T12:28:02.580Z,183.53
2022-11-14T12:29:02.429Z,170.82
2022-11-14T12:30:02.438Z,206.12
2022-11-14T12:31:02.428Z,238.59
2022-11-14T12:32:02.437Z,225.88
2022-11-14T12:33:02.439Z,184.94
2022-11-14T12:34:02.431Z,216
2022-11-14T12:35:02.518Z,207.53
2022-11-14T12:36:02.454Z,208.94
2022-11-14T12:37:02.541Z,194.82
2022-11-14T12:38:02.437Z,196.24
2022-11-14T12:39:02.433Z,208.94
2022-11-14T12:40:02.426Z,199.06
2022-11-14T12:41:02.431Z,192
2022-11-14T12:42:02.439Z,203.29
2022-11-14T12:43:02.440Z,211.76
2022-11-14T12:44:02.463Z,221.65
2022-11-14T12:45:02.442Z,189.18
2022-11-14T12:46:02.444Z,183.53